createdAt,value
2018-03-24T00:00:52.789Z,55.56
2018-03-24T00:01:52.689Z,56.13
2018-03-24T00:02:52.656Z,56.03
2018-03-24T00:03:52.672Z,56.03
2018-03-24T00:04:52.636Z,56.32
2018-03-24T00:05:52.619Z,56.22
2018-03-24T00:06:52.612Z,56.22
2018-03-24T00:07:52.700Z,56.32
2018-03-24T00:08:52.624Z,56.41
2018-03-24T00:09:52.600Z,55.94
2018-03-24T00:10:52.632Z,56.13
2018-03-24T00:11:52.620Z,55.84
2018-03-24T00:12:52.629Z,55.65
2018-03-24T00:13:52.576Z,55.27
2018-03-24T00:14:52.568Z,55.37
2018-03-24T00:15:52.584Z,54.90
2018-03-24T00:16:52.643Z,55.08
2018-03-24T00:17:52.575Z,55.18
2018-03-24T00:18:52.558Z,55.18
2018-03-24T00:19:52.550Z,55.56
2018-03-24T00:20:52.575Z,54.99
2018-03-24T00:21:52.533Z,55.27
2018-03-24T00:22:52.605Z,55.08
2018-03-24T00:23:52.523Z,54.61
2018-03-24T00:24:52.533Z,55.08
2018-03-24T00:25:52.541Z,55.65
2018-03-24T00:26:52.524Z,55.94
2018-03-24T00:27:52.583Z,55.65
2018-03-24T00:28:52.522Z,55.46
2018-03-24T00:29:52.519Z,56.03
2018-03-24T00:30:52.493Z,55.75
2018-03-24T00:31:52.506Z,55.46
2018-03-24T00:32:52.532Z,55.46
2018-03-24T00:33:52.500Z,55.18
2018-03-24T00:34:52.488Z,55.08
2018-03-24T00:35:52.485Z,54.80
2018-03-24T00:36:52.490Z,54.99
2018-03-24T00:37:52.507Z,55.84
2018-03-24T00:38:52.473Z,54.99
2018-03-24T00:39:52.461Z,55.21
2018-03-24T00:40:52.485Z,55.68
2018-03-24T00:41:52.448Z,55.58
2018-03-24T00:42:52.489Z,56.32
2018-03-24T00:43:52.433Z,56.13
2018-03-24T00:44:52.439Z,56.32
2018-03-24T00:45:52.442Z,56.32
2018-03-24T00:46:52.427Z,56.51
2018-03-24T00:47:52.502Z,56.51
2018-03-24T00:48:52.432Z,55.46
2018-03-24T00:49:52.430Z,55.56
2018-03-24T00:50:52.432Z,56.03
2018-03-24T00:51:52.420Z,56.32
2018-03-24T00:52:52.435Z,56.13
2018-03-24T00:53:52.410Z,55.46
2018-03-24T00:54:52.399Z,55.08
2018-03-24T00:55:52.392Z,54.83
2018-03-24T00:56:52.397Z,55.37
2018-03-24T00:57:52.413Z,55.77
2018-03-24T00:58:52.387Z,56.34
2018-03-24T00:59:52.381Z,56.63
2018-03-24T01:00:52.366Z,57.01
2018-03-24T01:01:52.363Z,57.95
2018-03-24T01:02:52.405Z,58.11
2018-03-24T01:03:52.404Z,57.73
2018-03-24T01:04:52.355Z,57.83
2018-03-24T01:05:52.381Z,57.17
2018-03-24T01:06:52.333Z,57.26
2018-03-24T01:07:52.385Z,56.41
2018-03-24T01:08:52.344Z,55.37
2018-03-24T01:09:52.336Z,55.75
2018-03-24T01:10:52.324Z,55.94
2018-03-24T01:11:52.326Z,56.41
2018-03-24T01:12:52.370Z,56.32
2018-03-24T01:13:52.306Z,56.22
2018-03-24T01:14:52.317Z,56.41
2018-03-24T01:15:52.297Z,56.60
2018-03-24T01:16:52.799Z,56.22
2018-03-24T01:17:52.346Z,56.79
2018-03-24T01:18:52.279Z,56.70
2018-03-24T01:19:52.297Z,56.22
2018-03-24T01:20:52.278Z,56.60
2018-03-24T01:21:52.292Z,56.79
2018-03-24T01:22:52.797Z,56.51
2018-03-24T01:23:52.276Z,56.88
2018-03-24T01:24:52.265Z,56.79
2018-03-24T01:25:52.272Z,56.51
2018-03-24T01:26:52.247Z,56.41
2018-03-24T01:27:52.290Z,56.41
2018-03-24T01:28:52.260Z,56.60
2018-03-24T01:29:53.004Z,56.98
2018-03-24T01:30:52.246Z,56.98
2018-03-24T01:31:52.222Z,56.70
2018-03-24T01:32:52.272Z,56.60
2018-03-24T01:33:52.223Z,56.60
2018-03-24T01:34:52.205Z,56.88
2018-03-24T01:35:52.222Z,56.70
2018-03-24T01:36:52.208Z,56.79
2018-03-24T01:37:52.251Z,56.32
2018-03-24T01:38:52.192Z,56.41
2018-03-24T01:39:52.194Z,56.41
2018-03-24T01:40:52.197Z,56.51
2018-03-24T01:41:52.256Z,56.79
2018-03-24T01:42:52.191Z,56.70
2018-03-24T01:43:52.170Z,56.32
2018-03-24T01:44:52.160Z,56.13
2018-03-24T01:45:52.148Z,56.98
2018-03-24T01:46:52.153Z,57.07
2018-03-24T01:47:52.213Z,57.07
2018-03-24T01:48:52.152Z,57.26
2018-03-24T01:49:52.148Z,57.45
2018-03-24T01:50:52.169Z,57.07
2018-03-24T01:51:52.137Z,57.35
2018-03-24T01:52:52.182Z,57.07
2018-03-24T01:53:52.128Z,56.70
2018-03-24T01:54:52.114Z,56.22
2018-03-24T01:55:52.130Z,56.22
2018-03-24T01:56:52.161Z,56.98
2018-03-24T01:57:52.119Z,56.98
2018-03-24T01:58:52.110Z,57.17
2018-03-24T01:59:52.097Z,57.17
2018-03-24T02:00:52.146Z,56.98
2018-03-24T02:01:52.137Z,57.07
2018-03-24T02:02:52.098Z,56.88
2018-03-24T02:03:52.117Z,57.54
2018-03-24T02:04:52.077Z,57.73
2018-03-24T02:05:52.065Z,57.92
2018-03-24T02:06:52.146Z,57.92
2018-03-24T02:07:52.074Z,58.02
2018-03-24T02:08:52.066Z,58.11
2018-03-24T02:09:52.082Z,57.83
2018-03-24T02:10:52.071Z,57.92
2018-03-24T02:11:52.144Z,57.83
2018-03-24T02:12:52.073Z,57.54
2018-03-24T02:13:52.073Z,57.83
2018-03-24T02:14:52.043Z,58.02
2018-03-24T02:15:52.039Z,57.92
2018-03-24T02:16:52.073Z,57.73
2018-03-24T02:17:52.025Z,57.54
2018-03-24T02:18:52.020Z,56.98
2018-03-24T02:19:52.019Z,57.35
2018-03-24T02:20:52.044Z,56.88
2018-03-24T02:21:52.044Z,56.98
2018-03-24T02:22:52.027Z,56.88
2018-03-24T02:23:51.979Z,57.07
2018-03-24T02:24:52.000Z,56.88
2018-03-24T02:25:51.988Z,56.98
2018-03-24T02:26:52.027Z,57.17
2018-03-24T02:27:51.974Z,57.26
2018-03-24T02:28:51.975Z,57.26
2018-03-24T02:29:51.958Z,57.17
2018-03-24T02:30:51.995Z,57.26
2018-03-24T02:31:52.006Z,57.26
2018-03-24T02:32:51.953Z,56.98
2018-03-24T02:33:51.946Z,57.45
2018-03-24T02:34:51.979Z,56.98
2018-03-24T02:35:51.958Z,57.07
2018-03-24T02:36:52.006Z,57.17
2018-03-24T02:37:51.945Z,56.98
2018-03-24T02:38:51.920Z,57.83
2018-03-24T02:39:51.915Z,57.64
2018-03-24T02:40:51.918Z,58.11
2018-03-24T02:41:51.956Z,57.92
2018-03-24T02:42:51.930Z,57.92
2018-03-24T02:43:51.909Z,57.64
2018-03-24T02:44:51.895Z,57.92
2018-03-24T02:45:51.904Z,57.26
2018-03-24T02:46:51.952Z,56.88
2018-03-24T02:47:51.908Z,56.98
2018-03-24T02:48:51.866Z,56.98
2018-03-24T02:49:51.883Z,57.07
2018-03-24T02:50:54.931Z,56.88
2018-03-24T02:51:51.933Z,57.07
2018-03-24T02:52:51.876Z,56.88
2018-03-24T02:53:51.864Z,57.07
2018-03-24T02:54:51.857Z,56.98
2018-03-24T02:55:51.865Z,57.26
2018-03-24T02:56:51.886Z,57.26
2018-03-24T02:57:51.858Z,57.45
2018-03-24T02:58:51.834Z,57.17
2018-03-24T02:59:51.860Z,57.92
2018-03-24T03:00:51.825Z,57.83
2018-03-24T03:01:51.827Z,57.73
2018-03-24T03:02:51.855Z,58.02
2018-03-24T03:03:51.817Z,58.02
2018-03-24T03:04:51.824Z,57.92
2018-03-24T03:05:51.803Z,57.73
2018-03-24T03:06:51.808Z,57.54
2018-03-24T03:07:51.844Z,57.83
2018-03-24T03:08:51.800Z,57.83
2018-03-24T03:09:51.784Z,57.64
2018-03-24T03:10:51.770Z,57.73
2018-03-24T03:11:51.781Z,57.83
2018-03-24T03:12:51.834Z,57.83
2018-03-24T03:13:51.763Z,57.45
2018-03-24T03:14:51.741Z,57.35
2018-03-24T03:15:51.768Z,57.26
2018-03-24T03:16:52.292Z,56.98
2018-03-24T03:17:51.794Z,57.92
2018-03-24T03:18:51.749Z,57.54
2018-03-24T03:19:51.743Z,57.73
2018-03-24T03:20:51.722Z,57.92
2018-03-24T03:21:51.727Z,57.73
2018-03-24T03:22:51.769Z,58.21
2018-03-24T03:23:51.730Z,57.45
2018-03-24T03:24:51.716Z,57.73
2018-03-24T03:25:51.712Z,58.02
2018-03-24T03:26:51.767Z,57.73
2018-03-24T03:27:51.763Z,57.54
2018-03-24T03:28:51.708Z,57.64
2018-03-24T03:29:51.695Z,57.54
2018-03-24T03:30:51.665Z,57.92
2018-03-24T03:31:51.689Z,57.73
2018-03-24T03:32:51.733Z,58.21
2018-03-24T03:33:51.664Z,58.11
2018-03-24T03:34:51.662Z,57.73
2018-03-24T03:35:51.648Z,58.30
2018-03-24T03:36:51.715Z,58.11
2018-03-24T03:37:51.652Z,58.02
2018-03-24T03:38:51.649Z,57.83
2018-03-24T03:39:51.646Z,58.40
2018-03-24T03:40:51.632Z,57.73
2018-03-24T03:41:51.644Z,57.83
2018-03-24T03:42:51.664Z,58.02
2018-03-24T03:43:51.618Z,57.92
2018-03-24T03:44:51.618Z,57.73
2018-03-24T03:45:51.630Z,57.92
2018-03-24T03:46:51.629Z,58.11
2018-03-24T03:47:51.637Z,58.11
2018-03-24T03:48:51.586Z,58.11
2018-03-24T03:49:51.584Z,57.92
2018-03-24T03:50:51.603Z,58.02
2018-03-24T03:51:51.613Z,58.02
2018-03-24T03:52:51.566Z,57.92
2018-03-24T03:53:51.581Z,58.40
2018-03-24T03:54:51.570Z,58.87
2018-03-24T03:55:51.552Z,58.87
2018-03-24T03:56:51.632Z,58.30
2018-03-24T03:57:51.582Z,58.21
2018-03-24T03:58:51.572Z,57.73
2018-03-24T03:59:51.546Z,57.92
2018-03-24T04:00:51.537Z,57.92
2018-03-24T04:01:51.578Z,58.59
2018-03-24T04:02:51.535Z,58.78
2018-03-24T04:03:51.513Z,58.87
2018-03-24T04:04:51.524Z,58.87
2018-03-24T04:05:51.502Z,59.34
2018-03-24T04:06:51.560Z,60.29
2018-03-24T04:07:51.502Z,59.81
2018-03-24T04:08:51.487Z,60.10
2018-03-24T04:09:51.511Z,59.63
2018-03-24T04:10:51.484Z,60.00
2018-03-24T04:11:51.521Z,59.44
2018-03-24T04:12:51.495Z,59.31
2018-03-24T04:13:51.470Z,59.63
2018-03-24T04:14:51.468Z,58.84
2018-03-24T04:15:51.464Z,58.84
2018-03-24T04:16:51.496Z,58.59
2018-03-24T04:17:51.439Z,58.65
2018-03-24T04:18:51.444Z,58.65
2018-03-24T04:19:51.435Z,59.03
2018-03-24T04:20:51.440Z,58.75
2018-03-24T04:21:51.476Z,58.75
2018-03-24T04:22:51.447Z,58.47
2018-03-24T04:23:51.414Z,58.65
2018-03-24T04:24:51.429Z,58.75
2018-03-24T04:25:51.438Z,58.65
2018-03-24T04:26:51.443Z,58.65
2018-03-24T04:27:51.409Z,58.65
2018-03-24T04:28:51.426Z,58.65
2018-03-24T04:29:51.399Z,58.75
2018-03-24T04:30:51.409Z,58.28
2018-03-24T04:31:51.428Z,58.75
2018-03-24T04:32:51.414Z,58.75
2018-03-24T04:33:51.364Z,58.37
2018-03-24T04:34:51.372Z,58.56
2018-03-24T04:35:51.352Z,58.78
2018-03-24T04:36:51.397Z,58.78
2018-03-24T04:37:51.344Z,58.78
2018-03-24T04:38:51.355Z,58.78
2018-03-24T04:39:51.334Z,58.78
2018-03-24T04:40:51.358Z,58.59
2018-03-24T04:41:51.399Z,58.59
2018-03-24T04:42:51.341Z,58.59
2018-03-24T04:43:51.338Z,58.68
2018-03-24T04:44:51.315Z,58.59
2018-03-24T04:45:51.321Z,58.59
2018-03-24T04:46:51.353Z,58.68
2018-03-24T04:47:51.310Z,58.49
2018-03-24T04:48:51.283Z,58.68
2018-03-24T04:49:51.345Z,58.59
2018-03-24T04:50:51.303Z,58.49
2018-03-24T04:51:51.367Z,58.97
2018-03-24T04:52:51.296Z,59.16
2018-03-24T04:53:51.274Z,59.41
2018-03-24T04:54:51.264Z,59.22
2018-03-24T04:55:51.255Z,59.60
2018-03-24T04:56:51.277Z,59.31
2018-03-24T04:57:51.283Z,58.94
2018-03-24T04:58:51.248Z,59.03
2018-03-24T04:59:51.246Z,59.12
2018-03-24T05:00:51.234Z,58.84
2018-03-24T05:01:51.292Z,59.12
2018-03-24T05:02:51.232Z,58.84
2018-03-24T05:03:51.221Z,58.47
2018-03-24T05:04:51.229Z,58.47
2018-03-24T05:05:51.231Z,58.56
2018-03-24T05:06:51.253Z,58.75
2018-03-24T05:07:51.186Z,58.37
2018-03-24T05:08:51.228Z,59.31
2018-03-24T05:09:51.209Z,59.22
2018-03-24T05:10:51.188Z,58.47
2018-03-24T05:11:51.220Z,58.75
2018-03-24T05:12:51.182Z,58.68
2018-03-24T05:13:51.211Z,58.40
2018-03-24T05:14:51.162Z,58.78
2018-03-24T05:15:51.162Z,58.59
2018-03-24T05:16:51.202Z,58.97
2018-03-24T05:17:51.145Z,58.78
2018-03-24T05:18:51.166Z,59.63
2018-03-24T05:19:51.127Z,59.63
2018-03-24T05:20:51.130Z,59.44
2018-03-24T05:21:51.165Z,59.25
2018-03-24T05:22:51.129Z,59.44
2018-03-24T05:23:51.136Z,59.25
2018-03-24T05:24:51.110Z,59.06
2018-03-24T05:25:51.115Z,59.25
2018-03-24T05:26:51.151Z,59.06
2018-03-24T05:27:51.106Z,59.25
2018-03-24T05:28:51.093Z,59.81
2018-03-24T05:29:51.088Z,60.00
2018-03-24T05:30:51.073Z,59.44
2018-03-24T05:31:51.122Z,59.25
2018-03-24T05:32:51.074Z,61.61
2018-03-24T05:33:51.083Z,61.61
2018-03-24T05:34:51.084Z,61.15
2018-03-24T05:35:51.099Z,59.72
2018-03-24T05:36:51.055Z,60.17
2018-03-24T05:37:51.038Z,60.26
2018-03-24T05:38:51.040Z,59.06
2018-03-24T05:39:51.063Z,58.87
2018-03-24T05:40:51.091Z,59.25
2018-03-24T05:41:51.028Z,59.63
2018-03-24T05:42:51.013Z,60.00
2018-03-24T05:43:51.025Z,60.51
2018-03-24T05:44:51.022Z,61.55
2018-03-24T05:45:51.042Z,62.78
2018-03-24T05:46:50.999Z,63.82
2018-03-24T05:47:51.005Z,66.89
2018-03-24T05:48:51.003Z,71.06
2018-03-24T05:49:50.981Z,74.28
2018-03-24T05:50:51.044Z,75.51
2018-03-24T05:51:51.030Z,77.40
2018-03-24T05:52:50.975Z,76.46
2018-03-24T05:53:50.988Z,76.55
2018-03-24T05:54:50.987Z,74.18
2018-03-24T05:55:50.963Z,73.71
2018-03-24T05:56:50.998Z,73.90
2018-03-24T05:57:50.961Z,76.59
2018-03-24T05:58:50.949Z,76.50
2018-03-24T05:59:50.931Z,79.53
2018-03-24T06:00:50.989Z,81.99
2018-03-24T06:01:50.977Z,82.37
2018-03-24T06:02:50.943Z,82.18
2018-03-24T06:03:50.941Z,81.71
2018-03-24T06:04:50.921Z,83.36
2018-03-24T06:05:50.933Z,86.78
2018-03-24T06:06:50.958Z,87.54
2018-03-24T06:07:50.916Z,86.49
2018-03-24T06:08:50.922Z,86.40
2018-03-24T06:09:50.932Z,86.02
2018-03-24T06:10:50.924Z,88.10
2018-03-24T06:11:50.935Z,87.82
2018-03-24T06:12:50.910Z,88.01
2018-03-24T06:13:50.885Z,85.74
2018-03-24T06:14:50.885Z,86.59
2018-03-24T06:15:50.875Z,90.19
2018-03-24T06:16:50.929Z,86.44
2018-03-24T06:17:50.885Z,88.91
2018-03-24T06:18:50.873Z,93.13
2018-03-24T06:19:50.883Z,94.18
2018-03-24T06:20:50.865Z,92.28
2018-03-24T06:21:50.898Z,91.14
2018-03-24T06:22:50.858Z,91.89
2018-03-24T06:23:50.862Z,91.75
2018-03-24T06:24:50.846Z,89.14
2018-03-24T06:25:50.873Z,92.04
2018-03-24T06:26:50.901Z,96.45
2018-03-24T06:27:50.849Z,97.22
2018-03-24T06:28:50.875Z,95.32
2018-03-24T06:29:50.871Z,94.74
2018-03-24T06:30:50.861Z,94.46
2018-03-24T06:31:50.881Z,94.46
2018-03-24T06:32:50.857Z,95.17
2018-03-24T06:33:50.856Z,94.60
2018-03-24T06:34:50.853Z,93.51
2018-03-24T06:35:50.847Z,95.17
2018-03-24T06:36:50.901Z,94.60
2018-03-24T06:37:50.855Z,92.84
2018-03-24T06:38:50.846Z,91.03
2018-03-24T06:39:50.855Z,90.17
2018-03-24T06:40:50.844Z,90.03
2018-03-24T06:41:50.879Z,90.84
2018-03-24T06:42:50.822Z,91.51
2018-03-24T06:43:50.829Z,91.99
2018-03-24T06:44:50.933Z,92.32
2018-03-24T06:45:50.847Z,91.37
2018-03-24T06:46:50.874Z,89.94
2018-03-24T06:47:50.838Z,90.47
2018-03-24T06:48:50.873Z,91.08
2018-03-24T06:49:50.839Z,91.47
2018-03-24T06:50:50.854Z,91.94
2018-03-24T06:51:50.887Z,92.36
2018-03-24T06:52:50.873Z,92.89
2018-03-24T06:53:50.831Z,90.22
2018-03-24T06:54:50.834Z,89.84
2018-03-24T06:55:50.886Z,88.12
2018-03-24T06:56:50.898Z,85.97
2018-03-24T06:57:50.837Z,84.69
2018-03-24T06:58:50.848Z,81.63
2018-03-24T06:59:50.850Z,81.15
2018-03-24T07:00:50.843Z,79.53
2018-03-24T07:01:50.874Z,80.11
2018-03-24T07:02:50.863Z,80.43
2018-03-24T07:03:50.858Z,78.62
2018-03-24T07:04:50.866Z,78.09
2018-03-24T07:05:50.856Z,75.72
2018-03-24T07:06:50.923Z,80.16
2018-03-24T07:07:50.872Z,81.93
2018-03-24T07:08:50.874Z,83.65
2018-03-24T07:09:51.290Z,85.56
2018-03-24T07:10:50.875Z,87.89
2018-03-24T07:11:50.910Z,87.41
2018-03-24T07:12:50.886Z,86.60
2018-03-24T07:13:50.874Z,86.51
2018-03-24T07:14:50.925Z,84.79
2018-03-24T07:15:50.924Z,85.60
2018-03-24T07:16:50.934Z,84.07
2018-03-24T07:17:50.913Z,80.49
2018-03-24T07:18:50.922Z,80.39
2018-03-24T07:19:50.892Z,79.96
2018-03-24T07:20:50.902Z,78.05
2018-03-24T07:21:50.952Z,77.61
2018-03-24T07:22:50.911Z,75.18
2018-03-24T07:23:50.928Z,77.34
2018-03-24T07:24:50.904Z,76.81
2018-03-24T07:25:50.924Z,77.99
2018-03-24T07:26:50.959Z,75.64
2018-03-24T07:27:50.925Z,74.05
2018-03-24T07:28:50.933Z,71.28
2018-03-24T07:29:50.981Z,69.85
2018-03-24T07:30:50.954Z,70.48
2018-03-24T07:31:51.794Z,71.25
2018-03-24T07:32:51.000Z,74.49
2018-03-24T07:33:50.965Z,75.07
2018-03-24T07:34:50.967Z,74.40
2018-03-24T07:35:50.971Z,72.05
2018-03-24T07:36:51.000Z,69.37
2018-03-24T07:37:51.007Z,67.84
2018-03-24T07:38:50.973Z,65.64
2018-03-24T07:39:50.987Z,64.69
2018-03-24T07:40:51.020Z,64.78
2018-03-24T07:41:51.030Z,64.05
2018-03-24T07:42:51.019Z,63.48
2018-03-24T07:43:51.017Z,62.71
2018-03-24T07:44:51.016Z,60.06
2018-03-24T07:45:51.059Z,61.02
2018-03-24T07:46:51.012Z,60.83
2018-03-24T07:47:51.036Z,60.74
2018-03-24T07:48:51.044Z,59.78
2018-03-24T07:49:51.057Z,59.33
2018-03-24T07:50:51.123Z,59.33
2018-03-24T07:51:51.074Z,57.70
2018-03-24T07:52:51.083Z,55.98
2018-03-24T07:53:51.061Z,58.18
2018-03-24T07:54:51.083Z,58.18
2018-03-24T07:55:51.149Z,60.45
2018-03-24T07:56:51.128Z,61.02
2018-03-24T07:57:51.112Z,60.06
2018-03-24T07:58:51.098Z,60.55
2018-03-24T07:59:51.123Z,59.72
2018-03-24T08:00:51.147Z,58.79
2018-03-24T08:01:51.166Z,54.96
2018-03-24T08:02:51.134Z,55.79
2018-03-24T08:03:51.142Z,56.08
2018-03-24T08:04:51.150Z,59.01
2018-03-24T08:05:51.199Z,59.84
2018-03-24T08:06:51.179Z,62.24
2018-03-24T08:07:51.172Z,63.45
2018-03-24T08:08:51.209Z,64.69
2018-03-24T08:09:51.220Z,66.13
2018-03-24T08:10:51.248Z,64.12
2018-03-24T08:11:51.226Z,62.21
2018-03-24T08:12:51.223Z,64.53
2018-03-24T08:13:51.229Z,68.03
2018-03-24T08:14:51.273Z,67.49
2018-03-24T08:15:51.276Z,66.56
2018-03-24T08:16:51.334Z,65.11
2018-03-24T08:17:51.252Z,64.18
2018-03-24T08:18:51.251Z,60.96
2018-03-24T08:19:51.345Z,56.49
2018-03-24T08:20:51.292Z,55.22
2018-03-24T08:21:51.285Z,56.40
2018-03-24T08:22:51.294Z,57.68
2018-03-24T08:23:51.336Z,60.71
2018-03-24T08:24:51.322Z,58.73
2018-03-24T08:25:51.373Z,56.23
2018-03-24T08:26:51.407Z,58.77
2018-03-24T08:27:51.364Z,56.36
2018-03-24T08:28:51.345Z,56.36
2018-03-24T08:29:51.366Z,56.07
2018-03-24T08:30:51.429Z,56.36
2018-03-24T08:31:51.373Z,55.41
2018-03-24T08:32:51.400Z,55.76
2018-03-24T08:33:51.386Z,56.24
2018-03-24T08:34:51.418Z,54.83
2018-03-24T08:35:51.448Z,53.85
2018-03-24T08:36:51.421Z,56.05
2018-03-24T08:37:51.420Z,59.17
2018-03-24T08:38:52.447Z,60.78
2018-03-24T08:39:51.484Z,62.18
2018-03-24T08:40:51.490Z,61.13
2018-03-24T08:41:51.498Z,61.99
2018-03-24T08:42:51.463Z,61.83
2018-03-24T08:43:51.493Z,61.42
2018-03-24T08:44:51.504Z,61.00
2018-03-24T08:45:51.534Z,60.84
2018-03-24T08:46:51.482Z,57.41
2018-03-24T08:47:51.529Z,55.79
2018-03-24T08:48:51.545Z,55.47
2018-03-24T08:49:51.507Z,57.23
2018-03-24T08:50:51.577Z,58.21
2018-03-24T08:51:51.553Z,58.87
2018-03-24T08:52:51.525Z,58.02
2018-03-24T08:53:51.537Z,56.59
2018-03-24T08:54:51.547Z,55.87
2018-03-24T08:55:51.602Z,56.43
2018-03-24T08:56:51.544Z,53.78
2018-03-24T08:57:51.557Z,51.81
2018-03-24T08:58:52.465Z,57.56
2018-03-24T08:59:51.596Z,55.24
2018-03-24T09:00:51.649Z,50.95
2018-03-24T09:01:51.579Z,51.33
2018-03-24T09:02:51.569Z,50.57
2018-03-24T09:03:51.602Z,49.11
2018-03-24T09:04:51.634Z,49.95
2018-03-24T09:05:51.602Z,50.26
2018-03-24T09:06:51.636Z,51.23
2018-03-24T09:07:51.637Z,48.78
2018-03-24T09:08:51.667Z,46.51
2018-03-24T09:09:51.687Z,46.13
2018-03-24T09:10:51.644Z,46.92
2018-03-24T09:11:51.678Z,47.32
2018-03-24T09:12:51.661Z,47.61
2018-03-24T09:13:51.680Z,45.24
2018-03-24T09:14:51.766Z,45.01
2018-03-24T09:15:51.688Z,46.97
2018-03-24T09:16:51.723Z,47.89
2018-03-24T09:17:51.714Z,48.90
2018-03-24T09:18:51.726Z,50.42
2018-03-24T09:19:51.776Z,50.32
2018-03-24T09:20:51.746Z,49.49
2018-03-24T09:21:51.795Z,50.04
2018-03-24T09:22:51.779Z,49.08
2018-03-24T09:23:51.821Z,48.99
2018-03-24T09:24:51.965Z,49.02
2018-03-24T09:25:51.842Z,49.02
2018-03-24T09:26:51.855Z,48.63
2018-03-24T09:27:51.855Z,47.61
2018-03-24T09:28:51.854Z,47.61
2018-03-24T09:29:51.887Z,46.47
2018-03-24T09:30:51.920Z,46.54
2018-03-24T09:31:51.926Z,46.84
2018-03-24T09:32:51.907Z,48.39
2018-03-24T09:33:51.913Z,48.71
2018-03-24T09:34:51.936Z,48.99
2018-03-24T09:35:51.979Z,48.02
2018-03-24T09:36:51.942Z,46.89
2018-03-24T09:37:51.962Z,48.13
2018-03-24T09:38:51.990Z,51.14
2018-03-24T09:39:52.026Z,52.56
2018-03-24T09:40:52.046Z,53.11
2018-03-24T09:41:52.037Z,53.77
2018-03-24T09:42:52.012Z,54.63
2018-03-24T09:43:52.028Z,55.80
2018-03-24T09:44:52.139Z,54.33
2018-03-24T09:45:52.102Z,53.74
2018-03-24T09:46:52.062Z,49.83
2018-03-24T09:47:52.085Z,47.63
2018-03-24T09:48:52.091Z,47.89
2018-03-24T09:49:52.154Z,46.63
2018-03-24T09:50:52.088Z,48.75
2018-03-24T09:51:52.103Z,50.11
2018-03-24T09:52:52.174Z,54.02
2018-03-24T09:53:52.132Z,55.09
2018-03-24T09:54:52.189Z,53.64
2018-03-24T09:55:52.157Z,55.26
2018-03-24T09:56:52.168Z,53.83
2018-03-24T09:57:52.549Z,53.61
2018-03-24T09:58:52.207Z,52.94
2018-03-24T09:59:52.252Z,54.78
2018-03-24T10:00:52.255Z,53.66
2018-03-24T10:01:52.214Z,52.52
2018-03-24T10:02:52.236Z,52.01
2018-03-24T10:03:52.270Z,61.07
2018-03-24T10:04:52.417Z,56.93
2018-03-24T10:05:52.273Z,54.77
2018-03-24T10:06:52.294Z,56.41
2018-03-24T10:07:52.302Z,56.17
2018-03-24T10:08:52.319Z,52.79
2018-03-24T10:09:52.396Z,50.21
2018-03-24T10:10:52.328Z,49.16
2018-03-24T10:11:52.386Z,48.75
2018-03-24T10:12:52.382Z,50.26
2018-03-24T10:13:52.389Z,54.74
2018-03-24T10:14:52.447Z,57.59
2018-03-24T10:15:52.409Z,55.26
2018-03-24T10:16:52.424Z,53.47
2018-03-24T10:17:52.436Z,50.21
2018-03-24T10:18:52.449Z,51.91
2018-03-24T10:19:52.506Z,53.39
2018-03-24T10:20:52.458Z,54.48
2018-03-24T10:21:52.500Z,54.04
2018-03-24T10:22:52.519Z,58.24
2018-03-24T10:23:52.565Z,60.11
2018-03-24T10:24:52.599Z,53.69
2018-03-24T10:25:52.578Z,51.12
2018-03-24T10:26:52.575Z,50.57
2018-03-24T10:27:52.599Z,50.95
2018-03-24T10:28:53.075Z,53.86
2018-03-24T10:29:52.630Z,53.10
2018-03-24T10:30:52.639Z,55.40
2018-03-24T10:31:52.642Z,53.65
2018-03-24T10:32:52.673Z,52.31
2018-03-24T10:33:52.736Z,58.83
2018-03-24T10:34:52.686Z,53.96
2018-03-24T10:35:52.717Z,51.83
2018-03-24T10:36:53.233Z,51.14
2018-03-24T10:37:52.722Z,61.57
2018-03-24T10:38:52.790Z,56.02
2018-03-24T10:39:52.800Z,49.85
2018-03-24T10:40:52.792Z,54.49
2018-03-24T10:41:52.800Z,54.18
2018-03-24T10:42:52.801Z,53.20
2018-03-24T10:43:52.866Z,51.31
2018-03-24T10:44:52.918Z,51.68
2018-03-24T10:45:52.866Z,52.57
2018-03-24T10:46:52.917Z,57.43
2018-03-24T10:47:52.897Z,53.78
2018-03-24T10:48:52.963Z,52.16
2018-03-24T10:49:52.939Z,62.24
2018-03-24T10:50:52.952Z,56.32
2018-03-24T10:51:52.970Z,57.97
2018-03-24T10:52:52.986Z,57.04
2018-03-24T10:53:53.050Z,52.65
2018-03-24T10:54:53.014Z,50.38
2018-03-24T10:55:53.030Z,54.25
2018-03-24T10:56:53.053Z,53.53
2018-03-24T10:57:53.072Z,51.29
2018-03-24T10:58:53.144Z,54.79
2018-03-24T10:59:53.091Z,54.79
2018-03-24T11:00:53.116Z,52.76
2018-03-24T11:01:53.141Z,62.46
2018-03-24T11:02:53.179Z,57.97
2018-03-24T11:03:53.218Z,51.31
2018-03-24T11:04:53.257Z,54.53
2018-03-24T11:05:53.202Z,56.67
2018-03-24T11:06:53.250Z,59.08
2018-03-24T11:07:53.229Z,56.09
2018-03-24T11:08:53.296Z,50.21
2018-03-24T11:09:53.268Z,49.99
2018-03-24T11:10:53.294Z,50.35
2018-03-24T11:11:53.296Z,52.07
2018-03-24T11:12:53.320Z,57.53
2018-03-24T11:13:53.390Z,54.86
2018-03-24T11:14:54.071Z,51.62
2018-03-24T11:15:53.384Z,50.98
2018-03-24T11:16:53.396Z,52.19
2018-03-24T11:17:53.452Z,53.08
2018-03-24T11:18:53.462Z,52.31
2018-03-24T11:19:53.454Z,51.14
2018-03-24T11:20:53.480Z,55.36
2018-03-24T11:21:53.473Z,58.36
2018-03-24T11:22:53.502Z,54.03
2018-03-24T11:23:53.556Z,51.68
2018-03-24T11:24:53.588Z,59.82
2018-03-24T11:25:53.557Z,57.98
2018-03-24T11:26:53.553Z,52.55
2018-03-24T11:27:53.591Z,52.04
2018-03-24T11:28:53.634Z,51.59
2018-03-24T11:29:53.615Z,55.24
2018-03-24T11:30:53.637Z,54.64
2018-03-24T11:31:53.647Z,51.78
2018-03-24T11:32:53.665Z,51.18
2018-03-24T11:33:53.724Z,51.95
2018-03-24T11:34:53.709Z,51.47
2018-03-24T11:35:53.711Z,51.18
2018-03-24T11:36:53.716Z,49.97
2018-03-24T11:37:53.727Z,49.52
2018-03-24T11:38:53.830Z,49.59
2018-03-24T11:39:53.769Z,50.26
2018-03-24T11:40:53.776Z,52.16
2018-03-24T11:41:53.802Z,51.68
2018-03-24T11:42:53.821Z,49.85
2018-03-24T11:43:53.881Z,50.83
2018-03-24T11:44:53.958Z,52.09
2018-03-24T11:45:53.875Z,51.12
2018-03-24T11:46:53.879Z,50.83
2018-03-24T11:47:53.881Z,51.76
2018-03-24T11:48:53.930Z,51.95
2018-03-24T11:49:53.932Z,51.28
2018-03-24T11:50:54.415Z,51.18
2018-03-24T11:51:53.950Z,55.19
2018-03-24T11:52:54.006Z,53.66
2018-03-24T11:53:54.026Z,53.66
2018-03-24T11:54:54.000Z,53.88
2018-03-24T11:55:54.019Z,52.48
2018-03-24T11:56:54.030Z,50.67
2018-03-24T11:57:54.048Z,50.80
2018-03-24T11:58:54.092Z,51.97
2018-03-24T11:59:54.058Z,52.45
2018-03-24T12:00:54.100Z,57.46
2018-03-24T12:01:54.119Z,54.94
2018-03-24T12:02:54.113Z,50.12
2018-03-24T12:03:54.165Z,48.94
2018-03-24T12:04:54.202Z,47.52
2018-03-24T12:05:54.159Z,49.21
2018-03-24T12:06:54.212Z,49.97
2018-03-24T12:07:54.199Z,48.33
2018-03-24T12:08:54.252Z,50.26
2018-03-24T12:09:54.224Z,47.16
2018-03-24T12:10:54.229Z,47.89
2018-03-24T12:11:54.249Z,49.30
2018-03-24T12:12:54.270Z,48.73
2018-03-24T12:13:54.322Z,48.63
2018-03-24T12:14:54.347Z,48.92
2018-03-24T12:15:54.317Z,49.97
2018-03-24T12:16:54.326Z,52.45
2018-03-24T12:17:54.346Z,53.59
2018-03-24T12:18:54.419Z,51.97
2018-03-24T12:19:54.414Z,53.31
2018-03-24T12:20:54.420Z,53.31
2018-03-24T12:21:54.465Z,55.79
2018-03-24T12:22:54.408Z,54.43
2018-03-24T12:23:54.473Z,54.80
2018-03-24T12:24:54.529Z,54.43
2018-03-24T12:25:54.472Z,54.61
2018-03-24T12:26:54.494Z,53.88
2018-03-24T12:27:54.501Z,53.91
2018-03-24T12:28:54.488Z,57.06
2018-03-24T12:29:54.573Z,54.96
2018-03-24T12:30:54.538Z,53.88
2018-03-24T12:31:54.553Z,55.31
2018-03-24T12:32:54.602Z,56.20
2018-03-24T12:33:54.620Z,53.97
2018-03-24T12:34:54.582Z,54.52
2018-03-24T12:35:54.607Z,55.95
2018-03-24T12:36:54.638Z,54.80
2018-03-24T12:37:54.634Z,55.38
2018-03-24T12:38:54.688Z,54.61
2018-03-24T12:39:54.685Z,57.63
2018-03-24T12:40:54.688Z,60.61
2018-03-24T12:41:54.681Z,55.21
2018-03-24T12:42:54.711Z,61.44
2018-03-24T12:43:54.749Z,55.19
2018-03-24T12:44:54.837Z,55.07
2018-03-24T12:45:54.737Z,54.90
2018-03-24T12:46:54.742Z,58.58
2018-03-24T12:47:54.784Z,57.28
2018-03-24T12:48:54.832Z,56.45
2018-03-24T12:49:54.811Z,60.74
2018-03-24T12:50:54.824Z,53.93
2018-03-24T12:51:54.838Z,56.23
2018-03-24T12:52:54.856Z,52.95